sensor_id;sensor_type;location;lat;lon;timestamp;pressure;altitude;pressure_sealevel;temperature;humidity
23170;BME280;11753;43.144;24.714;2022-07-23T00:00:27;99589.78;;;22.88;55.71
23170;BME280;11753;43.144;24.714;2022-07-23T00:01:28;99591.75;;;22.81;55.93
23170;BME280;11753;43.144;24.714;2022-07-23T00:02:29;99589.50;;;22.78;56.02
23170;BME280;11753;43.144;24.714;2022-07-23T00:03:30;99589.75;;;22.76;56.04
23170;BME280;11753;43.144;24.714;2022-07-23T00:04:31;99587.19;;;22.70;56.20
23170;BME280;11753;43.144;24.714;2022-07-23T00:05:32;99583.22;;;22.61;56.38
23170;BME280;11753;43.144;24.714;2022-07-23T00:06:33;99599.22;;;22.67;56.00
23170;BME280;11753;43.144;24.714;2022-07-23T00:07:34;99594.66;;;22.68;56.26
23170;BME280;11753;43.144;24.714;2022-07-23T00:08:35;99595.13;;;22.65;56.39
23170;BME280;11753;43.144;24.714;2022-07-23T00:09:36;99599.22;;;22.67;56.08
23170;BME280;11753;43.144;24.714;2022-07-23T00:10:37;99595.56;;;22.62;56.28
23170;BME280;11753;43.144;24.714;2022-07-23T00:11:39;99590.69;;;22.59;56.37
23170;BME280;11753;43.144;24.714;2022-07-23T00:12:39;99600.25;;;22.55;56.60
23170;BME280;11753;43.144;24.714;2022-07-23T00:13:40;99594.19;;;22.59;56.56
23170;BME280;11753;43.144;24.714;2022-07-23T00:14:41;99593.25;;;22.53;56.97
23170;BME280;11753;43.144;24.714;2022-07-23T00:15:42;99591.75;;;22.58;56.46
23170;BME280;11753;43.144;24.714;2022-07-23T00:16:44;99596.97;;;22.52;56.62
23170;BME280;11753;43.144;24.714;2022-07-23T00:17:45;99596.84;;;22.47;57.03
23170;BME280;11753;43.144;24.714;2022-07-23T00:18:46;99592.16;;;22.43;56.85
23170;BME280;11753;43.144;24.714;2022-07-23T00:19:47;99592.53;;;22.46;56.86
23170;BME280;11753;43.144;24.714;2022-07-23T00:20:48;99592.88;;;22.50;56.76
23170;BME280;11753;43.144;24.714;2022-07-23T00:21:49;99589.50;;;22.55;56.61
23170;BME280;11753;43.144;24.714;2022-07-23T00:22:52;99589.97;;;22.51;56.59
23170;BME280;11753;43.144;24.714;2022-07-23T00:23:54;99589.16;;;22.51;56.52
23170;BME280;11753;43.144;24.714;2022-07-23T00:24:55;99589.38;;;22.49;56.60
23170;BME280;11753;43.144;24.714;2022-07-23T00:25:56;99591.63;;;22.52;56.62
23170;BME280;11753;43.144;24.714;2022-07-23T00:26:59;99579.69;;;22.48;56.80
23170;BME280;11753;43.144;24.714;2022-07-23T00:28:01;99592.66;;;22.51;56.67
23170;BME280;11753;43.144;24.714;2022-07-23T00:29:02;99578.66;;;22.49;56.55
23170;BME280;11753;43.144;24.714;2022-07-23T00:30:03;99586.81;;;22.43;56.99
23170;BME280;11753;43.144;24.714;2022-07-23T00:31:05;99581.22;;;22.44;56.87
23170;BME280;11753;43.144;24.714;2022-07-23T00:32:06;99583.53;;;22.41;56.83
23170;BME280;11753;43.144;24.714;2022-07-23T00:33:07;99588.09;;;22.40;56.96
23170;BME280;11753;43.144;24.714;2022-07-23T00:34:08;99584.34;;;22.41;57.07
23170;BME280;11753;43.144;24.714;2022-07-23T00:35:08;99589.16;;;22.39;56.83
23170;BME280;11753;43.144;24.714;2022-07-23T00:36:09;99583.66;;;22.34;57.34
23170;BME280;11753;43.144;24.714;2022-07-23T00:37:10;99577.94;;;22.31;57.17
23170;BME280;11753;43.144;24.714;2022-07-23T00:38:11;99578.19;;;22.29;57.66
23170;BME280;11753;43.144;24.714;2022-07-23T00:39:12;99586.81;;;22.31;57.07
23170;BME280;11753;43.144;24.714;2022-07-23T00:40:14;99587.84;;;22.30;57.21
23170;BME280;11753;43.144;24.714;2022-07-23T00:41:15;99576.41;;;22.23;57.77
23170;BME280;11753;43.144;24.714;2022-07-23T00:42:16;99584.31;;;22.18;57.96
23170;BME280;11753;43.144;24.714;2022-07-23T00:43:20;99581.63;;;22.18;57.75
23170;BME280;11753;43.144;24.714;2022-07-23T00:44:23;99586.88;;;22.13;58.01
23170;BME280;11753;43.144;24.714;2022-07-23T00:45:25;99586.41;;;22.16;57.73
23170;BME280;11753;43.144;24.714;2022-07-23T00:46:26;99581.97;;;22.10;57.81
23170;BME280;11753;43.144;24.714;2022-07-23T00:47:27;99583.94;;;22.14;57.96
23170;BME280;11753;43.144;24.714;2022-07-23T00:48:28;99578.69;;;22.08;58.07
23170;BME280;11753;43.144;24.714;2022-07-23T00:49:30;99578.69;;;22.08;57.97
23170;BME280;11753;43.144;24.714;2022-07-23T00:50:31;99577.66;;;22.09;57.99
23170;BME280;11753;43.144;24.714;2022-07-23T00:51:32;99568.06;;;22.01;58.54
23170;BME280;11753;43.144;24.714;2022-07-23T00:52:34;99572.72;;;22.06;58.21
23170;BME280;11753;43.144;24.714;2022-07-23T00:53:35;99576.00;;;22.08;58.31
23170;BME280;11753;43.144;24.714;2022-07-23T00:54:36;99573.75;;;22.05;58.27
23170;BME280;11753;43.144;24.714;2022-07-23T00:55:38;99570.84;;;22.06;58.11
23170;BME280;11753;43.144;24.714;2022-07-23T00:56:39;99570.84;;;21.94;58.55
23170;BME280;11753;43.144;24.714;2022-07-23T00:57:42;99577.97;;;22.01;58.36
23170;BME280;11753;43.144;24.714;2022-07-23T00:58:44;99572.47;;;21.95;58.60
23170;BME280;11753;43.144;24.714;2022-07-23T00:59:45;99566.88;;;21.97;58.73
23170;BME280;11753;43.144;24.714;2022-07-23T01:00:46;99572.59;;;22.01;58.61
23170;BME280;11753;43.144;24.714;2022-07-23T01:01:48;99573.41;;;22.01;58.56
23170;BME280;11753;43.144;24.714;2022-07-23T01:02:50;99571.19;;;21.98;58.49
23170;BME280;11753;43.144;24.714;2022-07-23T01:03:51;99579.06;;;21.93;58.71
23170;BME280;11753;43.144;24.714;2022-07-23T01:04:53;99570.03;;;21.94;58.84
23170;BME280;11753;43.144;24.714;2022-07-23T01:05:54;99572.78;;;21.87;59.02
23170;BME280;11753;43.144;24.714;2022-07-23T01:06:57;99571.16;;;21.86;58.96
23170;BME280;11753;43.144;24.714;2022-07-23T01:07:59;99568.47;;;21.86;58.77
23170;BME280;11753;43.144;24.714;2022-07-23T01:09:00;99563.88;;;21.75;59.26
23170;BME280;11753;43.144;24.714;2022-07-23T01:10:01;99566.56;;;21.75;59.42
23170;BME280;11753;43.144;24.714;2022-07-23T01:11:02;99568.97;;;21.65;59.63
23170;BME280;11753;43.144;24.714;2022-07-23T01:12:04;99568.59;;;21.61;59.78
23170;BME280;11753;43.144;24.714;2022-07-23T01:13:08;99564.63;;;21.64;59.49
23170;BME280;11753;43.144;24.714;2022-07-23T01:14:15;99567.78;;;21.61;59.85
23170;BME280;11753;43.144;24.714;2022-07-23T01:15:16;99568.97;;;21.65;59.69
23170;BME280;11753;43.144;24.714;2022-07-23T01:16:17;99561.63;;;21.60;59.65
23170;BME280;11753;43.144;24.714;2022-07-23T01:17:18;99567.47;;;21.69;59.42
23170;BME280;11753;43.144;24.714;2022-07-23T01:18:19;99569.31;;;21.68;59.36
23170;BME280;11753;43.144;24.714;2022-07-23T01:19:20;99561.97;;;21.64;59.69
23170;BME280;11753;43.144;24.714;2022-07-23T01:20:21;99562.44;;;21.61;59.55
23170;BME280;11753;43.144;24.714;2022-07-23T01:21:24;99565.34;;;21.59;59.67
23170;BME280;11753;43.144;24.714;2022-07-23T01:22:28;99565.41;;;21.53;60.32
23170;BME280;11753;43.144;24.714;2022-07-23T01:23:30;99570.47;;;21.61;59.66
23170;BME280;11753;43.144;24.714;2022-07-23T01:24:31;99571.59;;;21.53;59.85
23170;BME280;11753;43.144;24.714;2022-07-23T01:25:32;99565.66;;;21.51;60.35
23170;BME280;11753;43.144;24.714;2022-07-23T01:26:33;99568.34;;;21.51;60.28
23170;BME280;11753;43.144;24.714;2022-07-23T01:27:34;99565.84;;;21.50;60.07
23170;BME280;11753;43.144;24.714;2022-07-23T01:28:35;99569.16;;;21.52;60.34
23170;BME280;11753;43.144;24.714;2022-07-23T01:29:36;99569.81;;;21.47;60.24
23170;BME280;11753;43.144;24.714;2022-07-23T01:30:37;99565.50;;;21.46;60.48
23170;BME280;11753;43.144;24.714;2022-07-23T01:31:38;99562.16;;;21.51;60.16
23170;BME280;11753;43.144;24.714;2022-07-23T01:32:39;99559.19;;;21.40;60.73
23170;BME280;11753;43.144;24.714;2022-07-23T01:33:40;99560.22;;;21.39;60.79
23170;BME280;11753;43.144;24.714;2022-07-23T01:34:41;99564.63;;;21.34;60.84
23170;BME280;11753;43.144;24.714;2022-07-23T01:35:42;99560.53;;;21.31;60.74
23170;BME280;11753;43.144;24.714;2022-07-23T01:36:43;99559.66;;;21.37;60.48
23170;BME280;11753;43.144;24.714;2022-07-23T01:37:45;99560.69;;;21.36;60.56
23170;BME280;11753;43.144;24.714;2022-07-23T01:38:46;99558.28;;;21.28;60.68
23170;BME280;11753;43.144;24.714;2022-07-23T01:39:47;99570.66;;;21.29;61.02
23170;BME280;11753;43.144;24.714;2022-07-23T01:40:48;99562.53;;;21.36;60.85
23170;BME280;11753;43.144;24.714;2022-07-23T01:41:48;99557.16;;;21.36;60.49
23170;BME280;11753;43.144;24.714;2022-07-23T01:42:49;99566.72;;;21.32;60.62
23170;BME280;11753;43.144;24.714;2022-07-23T01:43:50;99560.78;;;21.30;60.72
23170;BME280;11753;43.144;24.714;2022-07-23T01:44:51;99558.69;;;21.32;60.87
23170;BME280;11753;43.144;24.714;2022-07-23T01:45:52;99565.31;;;21.29;60.96
23170;BME280;11753;43.144;24.714;2022-07-23T01:46:53;99560.34;;;21.26;60.82
23170;BME280;11753;43.144;24.714;2022-07-23T01:47:54;99558.97;;;21.24;60.94
23170;BME280;11753;43.144;24.714;2022-07-23T01:48:55;99557.69;;;21.26;60.78
23170;BME280;11753;43.144;24.714;2022-07-23T01:49:56;99564.84;;;21.32;60.80
23170;BME280;11753;43.144;24.714;2022-07-23T01:50:57;99557.88;;;21.31;60.47
23170;BME280;11753;43.144;24.714;2022-07-23T01:51:58;99560.19;;;21.21;61.21
23170;BME280;11753;43.144;24.714;2022-07-23T01:53:02;99562.44;;;21.24;61.12
23170;BME280;11753;43.144;24.714;2022-07-23T01:54:03;99562.75;;;21.34;60.61
23170;BME280;11753;43.144;24.714;2022-07-23T01:55:04;99557.09;;;21.24;60.75
23170;BME280;11753;43.144;24.714;2022-07-23T01:56:06;99555.47;;;21.23;60.85
23170;BME280;11753;43.144;24.714;2022-07-23T01:57:08;99555.00;;;21.26;60.60
23170;BME280;11753;43.144;24.714;2022-07-23T01:58:09;99556.06;;;21.25;61.11
23170;BME280;11753;43.144;24.714;2022-07-23T01:59:10;99559.78;;;21.24;60.86
23170;BME280;11753;43.144;24.714;2022-07-23T02:00:11;99558.97;;;21.24;60.92
23170;BME280;11753;43.144;24.714;2022-07-23T02:01:12;99570.91;;;21.21;61.17
23170;BME280;11753;43.144;24.714;2022-07-23T02:02:14;99567.41;;;21.21;60.87
23170;BME280;11753;43.144;24.714;2022-07-23T02:03:15;99566.59;;;21.20;60.94
23170;BME280;11753;43.144;24.714;2022-07-23T02:04:17;99571.06;;;21.26;60.82
23170;BME280;11753;43.144;24.714;2022-07-23T02:05:18;99559.84;;;21.17;60.87
23170;BME280;11753;43.144;24.714;2022-07-23T02:06:19;99569.28;;;21.20;60.72
23170;BME280;11753;43.144;24.714;2022-07-23T02:07:20;99567.41;;;21.21;61.10
23170;BME280;11753;43.144;24.714;2022-07-23T02:08:21;99572.84;;;21.14;61.18
23170;BME280;11753;43.144;24.714;2022-07-23T02:09:22;99564.22;;;21.12;61.06
23170;BME280;11753;43.144;24.714;2022-07-23T02:10:23;99567.13;;;21.10;61.27
23170;BME280;11753;43.144;24.714;2022-07-23T02:11:23;99573.31;;;21.11;61.15
23170;BME280;11753;43.144;24.714;2022-07-23T02:12:24;99566.66;;;21.13;60.95
23170;BME280;11753;43.144;24.714;2022-07-23T02:13:26;99574.13;;;21.11;60.96
23170;BME280;11753;43.144;24.714;2022-07-23T02:14:27;99574.34;;;21.10;61.14
23170;BME280;11753;43.144;24.714;2022-07-23T02:15:28;99573.66;;;21.14;61.04
23170;BME280;11753;43.144;24.714;2022-07-23T02:16:29;99564.22;;;21.12;61.34
23170;BME280;11753;43.144;24.714;2022-07-23T02:17:30;99567.78;;;21.06;61.31
23170;BME280;11753;43.144;24.714;2022-07-23T02:18:31;99572.63;;;20.97;61.47
23170;BME280;11753;43.144;24.714;2022-07-23T02:19:34;99562.31;;;21.01;61.49
23170;BME280;11753;43.144;24.714;2022-07-23T02:20:35;99570.47;;;21.06;61.85
23170;BME280;11753;43.144;24.714;2022-07-23T02:21:39;99569.56;;;21.12;61.49
23170;BME280;11753;43.144;24.714;2022-07-23T02:22:40;99578.06;;;21.09;61.44
23170;BME280;11753;43.144;24.714;2022-07-23T02:23:41;99567.72;;;21.12;61.29
23170;BME280;11753;43.144;24.714;2022-07-23T02:24:44;99576.13;;;21.16;61.04
23170;BME280;11753;43.144;24.714;2022-07-23T02:25:45;99570.56;;;21.17;60.77
23170;BME280;11753;43.144;24.714;2022-07-23T02:26:46;99569.50;;;21.19;61.05
23170;BME280;11753;43.144;24.714;2022-07-23T02:27:46;99567.81;;;21.24;60.73
23170;BME280;11753;43.144;24.714;2022-07-23T02:28:47;99568.91;;;21.16;60.58
23170;BME280;11753;43.144;24.714;2022-07-23T02:29:48;99566.59;;;21.20;60.62
23170;BME280;11753;43.144;24.714;2022-07-23T02:30:49;99563.78;;;21.15;60.94
23170;BME280;11753;43.144;24.714;2022-07-23T02:31:53;99569.56;;;21.12;60.96
23170;BME280;11753;43.144;24.714;2022-07-23T02:32:54;99571.38;;;21.18;60.71
23170;BME280;11753;43.144;24.714;2022-07-23T02:33:54;99574.50;;;21.15;60.58
23170;BME280;11753;43.144;24.714;2022-07-23T02:34:56;99568.31;;;21.14;60.83
23170;BME280;11753;43.144;24.714;2022-07-23T02:35:57;99569.56;;;21.12;60.64
23170;BME280;11753;43.144;24.714;2022-07-23T02:36:57;99567.88;;;21.17;60.85
23170;BME280;11753;43.144;24.714;2022-07-23T02:37:58;99575.50;;;21.14;60.77
23170;BME280;11753;43.144;24.714;2022-07-23T02:38:59;99567.94;;;21.11;60.58
23170;BME280;11753;43.144;24.714;2022-07-23T02:40:00;99568.69;;;21.18;60.41
23170;BME280;11753;43.144;24.714;2022-07-23T02:41:02;99571.09;;;21.08;60.78
23170;BME280;11753;43.144;24.714;2022-07-23T02:42:03;99575.38;;;21.09;60.83
23170;BME280;11753;43.144;24.714;2022-07-23T02:43:04;99573.75;;;21.08;60.92
23170;BME280;11753;43.144;24.714;2022-07-23T02:44:05;99570.75;;;20.98;61.31
23170;BME280;11753;43.144;24.714;2022-07-23T02:45:07;99570.16;;;20.96;61.14
23170;BME280;11753;43.144;24.714;2022-07-23T02:46:08;99578.78;;;20.98;61.23
23170;BME280;11753;43.144;24.714;2022-07-23T02:47:09;99565.56;;;21.03;61.21
23170;BME280;11753;43.144;24.714;2022-07-23T02:48:09;99574.56;;;21.08;60.59
23170;BME280;11753;43.144;24.714;2022-07-23T02:49:13;99575.75;;;21.12;60.73
23170;BME280;11753;43.144;24.714;2022-07-23T02:50:14;99574.03;;;21.18;60.53
23170;BME280;11753;43.144;24.714;2022-07-23T02:51:14;99571.22;;;21.13;60.47
23170;BME280;11753;43.144;24.714;2022-07-23T02:52:15;99567.72;;;21.12;60.61
23170;BME280;11753;43.144;24.714;2022-07-23T02:53:16;99572.25;;;21.12;60.55
23170;BME280;11753;43.144;24.714;2022-07-23T02:54:17;99581.16;;;21.06;60.61
23170;BME280;11753;43.144;24.714;2022-07-23T02:55:18;99573.66;;;21.14;60.34
23170;BME280;11753;43.144;24.714;2022-07-23T02:56:19;99572.41;;;21.17;60.61
23170;BME280;11753;43.144;24.714;2022-07-23T02:57:20;99574.94;;;21.12;60.63
23170;BME280;11753;43.144;24.714;2022-07-23T02:58:21;99575.22;;;21.04;61.03
23170;BME280;11753;43.144;24.714;2022-07-23T02:59:22;99581.63;;;21.03;60.91
23170;BME280;11753;43.144;24.714;2022-07-23T03:00:23;99576.28;;;21.03;60.87
23170;BME280;11753;43.144;24.714;2022-07-23T03:01:24;99580.59;;;21.04;60.99
23170;BME280;11753;43.144;24.714;2022-07-23T03:02:25;99583.72;;;21.01;61.04
23170;BME280;11753;43.144;24.714;2022-07-23T03:03:25;99580.00;;;21.02;61.12
23170;BME280;11753;43.144;24.714;2022-07-23T03:04:26;99582.03;;;21.00;60.98
23170;BME280;11753;43.144;24.714;2022-07-23T03:05:27;99584.13;;;20.98;61.21
23170;BME280;11753;43.144;24.714;2022-07-23T03:06:27;99589.72;;;20.96;61.03
23170;BME280;11753;43.144;24.714;2022-07-23T03:07:28;99582.03;;;21.00;60.99
23170;BME280;11753;43.144;24.714;2022-07-23T03:08:29;99587.84;;;20.97;61.12
23170;BME280;11753;43.144;24.714;2022-07-23T03:09:30;99589.94;;;20.95;61.16
23170;BME280;11753;43.144;24.714;2022-07-23T03:10:31;99593.22;;;20.97;61.27
23170;BME280;11753;43.144;24.714;2022-07-23T03:11:31;99593.56;;;21.00;60.96
23170;BME280;11753;43.144;24.714;2022-07-23T03:12:32;99590.75;;;20.95;61.25
23170;BME280;11753;43.144;24.714;2022-07-23T03:13:32;99594.69;;;20.93;61.40
23170;BME280;11753;43.144;24.714;2022-07-23T03:14:33;99590.81;;;20.88;61.07
23170;BME280;11753;43.144;24.714;2022-07-23T03:15:33;99601.06;;;20.92;61.26
23170;BME280;11753;43.144;24.714;2022-07-23T03:16:34;99599.13;;;20.80;61.52
23170;BME280;11753;43.144;24.714;2022-07-23T03:17:34;99592.53;;;20.83;61.55
23170;BME280;11753;43.144;24.714;2022-07-23T03:18:35;99592.97;;;20.80;61.62
23170;BME280;11753;43.144;24.714;2022-07-23T03:19:38;99598.84;;;20.88;61.26
23170;BME280;11753;43.144;24.714;2022-07-23T03:20:39;99598.25;;;20.86;61.52
23170;BME280;11753;43.144;24.714;2022-07-23T03:21:40;99598.25;;;20.86;61.25
23170;BME280;11753;43.144;24.714;2022-07-23T03:22:41;99602.28;;;20.96;61.32
23170;BME280;11753;43.144;24.714;2022-07-23T03:23:41;99606.66;;;20.90;61.04
23170;BME280;11753;43.144;24.714;2022-07-23T03:24:42;99603.16;;;20.89;61.31
23170;BME280;11753;43.144;24.714;2022-07-23T03:25:55;99603.63;;;20.86;61.44
23170;BME280;11753;43.144;24.714;2022-07-23T03:26:55;99609.72;;;20.94;61.34
23170;BME280;11753;43.144;24.714;2022-07-23T03:27:56;99610.91;;;20.98;61.05
23170;BME280;11753;43.144;24.714;2022-07-23T03:28:57;99613.78;;;20.96;61.04
23170;BME280;11753;43.144;24.714;2022-07-23T03:29:58;99611.28;;;21.01;60.68
23170;BME280;11753;43.144;24.714;2022-07-23T03:30:59;99612.53;;;20.99;61.16
23170;BME280;11753;43.144;24.714;2022-07-23T03:32:00;99611.47;;;21.00;60.66
23170;BME280;11753;43.144;24.714;2022-07-23T03:33:00;99614.31;;;21.05;60.59
23170;BME280;11753;43.144;24.714;2022-07-23T03:34:01;99615.53;;;21.09;60.32
23170;BME280;11753;43.144;24.714;2022-07-23T03:35:02;99611.97;;;21.15;60.43
23170;BME280;11753;43.144;24.714;2022-07-23T03:36:03;99608.53;;;21.26;60.00
23170;BME280;11753;43.144;24.714;2022-07-23T03:37:04;99612.84;;;21.27;59.56
23170;BME280;11753;43.144;24.714;2022-07-23T03:38:04;99612.66;;;21.29;59.68
23170;BME280;11753;43.144;24.714;2022-07-23T03:39:05;99622.97;;;21.25;59.99
23170;BME280;11753;43.144;24.714;2022-07-23T03:40:06;99614.94;;;21.25;59.86
23170;BME280;11753;43.144;24.714;2022-07-23T03:41:06;99614.09;;;21.31;59.35
23170;BME280;11753;43.144;24.714;2022-07-23T03:42:07;99617.13;;;21.35;59.66
23170;BME280;11753;43.144;24.714;2022-07-23T03:43:08;99615.94;;;21.31;59.49
23170;BME280;11753;43.144;24.714;2022-07-23T03:44:08;99620.59;;;21.35;59.22
23170;BME280;11753;43.144;24.714;2022-07-23T03:45:10;99618.75;;;21.36;59.17
23170;BME280;11753;43.144;24.714;2022-07-23T03:46:10;99622.47;;;21.35;59.15
23170;BME280;11753;43.144;24.714;2022-07-23T03:47:11;99618.31;;;21.39;59.10
23170;BME280;11753;43.144;24.714;2022-07-23T03:48:11;99616.59;;;21.45;58.68
23170;BME280;11753;43.144;24.714;2022-07-23T03:49:12;99624.03;;;21.42;59.13
23170;BME280;11753;43.144;24.714;2022-07-23T03:50:13;99617.03;;;21.41;59.37
23170;BME280;11753;43.144;24.714;2022-07-23T03:51:14;99619.50;;;21.43;59.67
23170;BME280;11753;43.144;24.714;2022-07-23T03:52:15;99625.22;;;21.47;59.15
23170;BME280;11753;43.144;24.714;2022-07-23T03:53:16;99626.88;;;21.48;58.92
23170;BME280;11753;43.144;24.714;2022-07-23T03:54:17;99628.94;;;21.46;58.88
23170;BME280;11753;43.144;24.714;2022-07-23T03:55:18;99624.78;;;21.50;58.83
23170;BME280;11753;43.144;24.714;2022-07-23T03:56:19;99618.00;;;21.47;58.83
23170;BME280;11753;43.144;24.714;2022-07-23T03:57:20;99626.44;;;21.51;59.17
23170;BME280;11753;43.144;24.714;2022-07-23T03:58:21;99626.88;;;21.48;58.82
23170;BME280;11753;43.144;24.714;2022-07-23T03:59:24;99637.13;;;21.51;59.16
23170;BME280;11753;43.144;24.714;2022-07-23T04:00:26;99631.91;;;21.56;58.63
23170;BME280;11753;43.144;24.714;2022-07-23T04:01:27;99627.91;;;21.65;58.44
23170;BME280;11753;43.144;24.714;2022-07-23T04:02:28;99621.69;;;21.64;58.70
23170;BME280;11753;43.144;24.714;2022-07-23T04:03:29;99635.84;;;21.71;59.42
23170;BME280;11753;43.144;24.714;2022-07-23T04:04:30;99633.22;;;21.83;59.78
23170;BME280;11753;43.144;24.714;2022-07-23T04:05:31;99633.28;;;21.95;59.88
23170;BME280;11753;43.144;24.714;2022-07-23T04:06:31;99632.19;;;22.14;62.32
23170;BME280;11753;43.144;24.714;2022-07-23T04:07:33;99630.84;;;22.23;59.70
23170;BME280;11753;43.144;24.714;2022-07-23T04:08:34;99637.47;;;22.21;57.78
23170;BME280;11753;43.144;24.714;2022-07-23T04:09:35;99631.66;;;22.24;57.69
23170;BME280;11753;43.144;24.714;2022-07-23T04:10:36;99631.09;;;22.34;57.35
23170;BME280;11753;43.144;24.714;2022-07-23T04:11:37;99632.63;;;22.41;56.16
23170;BME280;11753;43.144;24.714;2022-07-23T04:12:38;99637.19;;;22.41;56.40
23170;BME280;11753;43.144;24.714;2022-07-23T04:13:39;99642.91;;;22.44;56.17
23170;BME280;11753;43.144;24.714;2022-07-23T04:14:40;99635.91;;;22.43;56.08
23170;BME280;11753;43.144;24.714;2022-07-23T04:15:41;99643.81;;;22.38;56.12
23170;BME280;11753;43.144;24.714;2022-07-23T04:16:42;99638.69;;;22.37;56.66
23170;BME280;11753;43.144;24.714;2022-07-23T04:17:43;99640.81;;;22.46;56.04
23170;BME280;11753;43.144;24.714;2022-07-23T04:18:45;99643.63;;;22.51;55.94
23170;BME280;11753;43.144;24.714;2022-07-23T04:19:46;99643.63;;;22.51;55.77
23170;BME280;11753;43.144;24.714;2022-07-23T04:20:50;99646.31;;;22.51;56.04
23170;BME280;11753;43.144;24.714;2022-07-23T04:21:51;99647.38;;;22.62;55.69
23170;BME280;11753;43.144;24.714;2022-07-23T04:22:52;99646.69;;;22.67;55.09
23170;BME280;11753;43.144;24.714;2022-07-23T04:23:53;99639.78;;;22.71;55.23
23170;BME280;11753;43.144;24.714;2022-07-23T04:24:53;99648.53;;;22.78;54.83
23170;BME280;11753;43.144;24.714;2022-07-23T04:25:54;99640.50;;;22.78;54.65
23170;BME280;11753;43.144;24.714;2022-07-23T04:26:55;99644.94;;;22.84;54.80
23170;BME280;11753;43.144;24.714;2022-07-23T04:27:56;99641.34;;;22.90;54.39
23170;BME280;11753;43.144;24.714;2022-07-23T04:28:58;99652.66;;;22.92;54.60
23170;BME280;11753;43.144;24.714;2022-07-23T04:29:59;99652.09;;;22.90;54.57
23170;BME280;11753;43.144;24.714;2022-07-23T04:31:00;99654.53;;;22.92;54.52
23170;BME280;11753;43.144;24.714;2022-07-23T04:32:01;99651.97;;;22.97;54.47
23170;BME280;11753;43.144;24.714;2022-07-23T04:33:02;99653.59;;;22.98;54.01
23170;BME280;11753;43.144;24.714;2022-07-23T04:34:06;99658.53;;;23.01;53.85
23170;BME280;11753;43.144;24.714;2022-07-23T04:35:07;99654.66;;;22.97;54.27
23170;BME280;11753;43.144;24.714;2022-07-23T04:36:09;99663.53;;;22.97;54.49
23170;BME280;11753;43.144;24.714;2022-07-23T04:37:10;99665.03;;;23.05;54.30
23170;BME280;11753;43.144;24.714;2022-07-23T04:38:10;99662.81;;;23.14;54.20
23170;BME280;11753;43.144;24.714;2022-07-23T04:39:11;99669.69;;;23.21;54.00
23170;BME280;11753;43.144;24.714;2022-07-23T04:40:13;99669.13;;;23.31;53.66
23170;BME280;11753;43.144;24.714;2022-07-23T04:41:14;99667.88;;;23.22;53.46
23170;BME280;11753;43.144;24.714;2022-07-23T04:42:15;99672.19;;;23.23;53.75
23170;BME280;11753;43.144;24.714;2022-07-23T04:43:16;99668.31;;;23.30;53.52
23170;BME280;11753;43.144;24.714;2022-07-23T04:44:17;99671.44;;;23.39;53.54
23170;BME280;11753;43.144;24.714;2022-07-23T04:45:18;99663.50;;;23.44;53.46
23170;BME280;11753;43.144;24.714;2022-07-23T04:46:18;99666.88;;;23.51;53.15
23170;BME280;11753;43.144;24.714;2022-07-23T04:47:19;99668.03;;;23.55;53.10
23170;BME280;11753;43.144;24.714;2022-07-23T04:48:21;99662.91;;;23.66;52.97
23170;BME280;11753;43.144;24.714;2022-07-23T04:49:22;99673.66;;;23.66;52.60
23170;BME280;11753;43.144;24.714;2022-07-23T04:50:23;99669.78;;;23.73;52.54
23170;BME280;11753;43.144;24.714;2022-07-23T04:51:24;99670.13;;;23.77;52.64
23170;BME280;11753;43.144;24.714;2022-07-23T04:52:25;99672.34;;;23.80;52.55
23170;BME280;11753;43.144;24.714;2022-07-23T04:53:26;99664.72;;;23.88;52.32
23170;BME280;11753;43.144;24.714;2022-07-23T04:54:27;99665.28;;;23.91;52.22
23170;BME280;11753;43.144;24.714;2022-07-23T04:55:28;99670.28;;;23.99;52.18
23170;BME280;11753;43.144;24.714;2022-07-23T04:56:29;99656.84;;;23.99;52.15
23170;BME280;11753;43.144;24.714;2022-07-23T04:57:30;99665.72;;;23.99;52.13
23170;BME280;11753;43.144;24.714;2022-07-23T04:58:31;99664.19;;;24.03;52.16
23170;BME280;11753;43.144;24.714;2022-07-23T04:59:33;99665.09;;;24.09;51.90
23170;BME280;11753;43.144;24.714;2022-07-23T05:00:33;99655.59;;;24.18;51.50
23170;BME280;11753;43.144;24.714;2022-07-23T05:01:34;99661.63;;;24.25;51.18
23170;BME280;11753;43.144;24.714;2022-07-23T05:02:35;99661.94;;;24.29;51.17
23170;BME280;11753;43.144;24.714;2022-07-23T05:03:36;99658.44;;;24.28;50.71
23170;BME280;11753;43.144;24.714;2022-07-23T05:04:37;99660.81;;;24.36;50.68
23170;BME280;11753;43.144;24.714;2022-07-23T05:05:39;99660.63;;;24.43;50.68
23170;BME280;11753;43.144;24.714;2022-07-23T05:06:39;99662.34;;;24.49;50.18
23170;BME280;11753;43.144;24.714;2022-07-23T05:07:40;99671.56;;;24.53;50.35
23170;BME280;11753;43.144;24.714;2022-07-23T05:08:41;99664.56;;;24.52;50.21
23170;BME280;11753;43.144;24.714;2022-07-23T05:09:42;99664.88;;;24.56;50.24
23170;BME280;11753;43.144;24.714;2022-07-23T05:10:44;99663.09;;;24.61;50.42
23170;BME280;11753;43.144;24.714;2022-07-23T05:11:45;99662.13;;;24.67;50.02
23170;BME280;11753;43.144;24.714;2022-07-23T05:12:45;99666.34;;;24.63;50.10
23170;BME280;11753;43.144;24.714;2022-07-23T05:13:49;99665.53;;;24.63;50.10
23170;BME280;11753;43.144;24.714;2022-07-23T05:14:50;99666.34;;;24.63;50.18
23170;BME280;11753;43.144;24.714;2022-07-23T05:15:52;99663.59;;;24.58;50.56
23170;BME280;11753;43.144;24.714;2022-07-23T05:16:53;99662.13;;;24.67;50.16
23170;BME280;11753;43.144;24.714;2022-07-23T05:17:54;99668.56;;;24.66;50.54
23170;BME280;11753;43.144;24.714;2022-07-23T05:18:55;99667.66;;;24.78;50.17
23170;BME280;11753;43.144;24.714;2022-07-23T05:19:56;99668.47;;;24.78;50.07